Time;durP1;ratioP1;P1;durP2;ratioP2;P2;SDS_P1;SDS_P2;PMS_P1;PMS_P2;Temp;Humidity;BMP_temperature;BMP_pressure;BME280_temperature;BME280_humidity;BME280_pressure;Samples;Min_cycle;Max_cycle;Signal;HPM_P1;HPM_P2
2023/10/11 00:00:37;;;;;;;3.17;2.70;;;20.90;99.90;;;;;;5066655;28;20168;-87
2023/10/11 00:03:34;;;;;;;3.20;2.60;;;20.90;99.90;;;;;;5039876;28;20184;-87
2023/10/11 00:06:04;;;;;;;3.70;2.83;;;20.90;99.90;;;;;;5048696;28;20405;-87
2023/10/11 00:08:40;;;;;;;3.63;2.37;;;20.90;99.90;;;;;;5056752;28;20166;-87
2023/10/11 00:11:09;;;;;;;3.83;2.93;;;20.90;99.90;;;;;;5064333;28;20268;-87
2023/10/11 00:13:40;;;;;;;3.93;3.00;;;20.90;99.90;;;;;;5056519;28;20233;-87
2023/10/11 00:16:08;;;;;;;3.37;2.40;;;20.90;99.90;;;;;;5048330;28;20174;-88
2023/10/11 00:18:36;;;;;;;4.50;2.93;;;20.90;99.90;;;;;;5038802;28;20422;-88
2023/10/11 00:21:35;;;;;;;3.60;2.77;;;20.90;99.90;;;;;;5053393;28;20515;-87
2023/10/11 00:23:49;;;;;;;3.33;2.60;;;20.90;99.90;;;;;;5055982;28;20196;-88
2023/10/11 00:26:22;;;;;;;3.10;2.60;;;20.90;99.90;;;;;;5050189;28;20196;-88
2023/10/11 00:28:48;;;;;;;3.07;2.70;;;20.80;99.90;;;;;;5038768;28;20169;-88
2023/10/11 00:31:22;;;;;;;3.00;2.60;;;20.90;99.90;;;;;;5067589;28;20465;-88
2023/10/11 00:33:48;;;;;;;4.23;3.00;;;20.90;99.90;;;;;;5036915;28;20198;-88
2023/10/11 00:38:49;;;;;;;3.20;2.70;;;20.90;99.90;;;;;;5069582;28;20618;-12
2023/10/11 00:41:17;;;;;;;3.20;2.47;;;20.80;99.90;;;;;;5053199;28;20212;-12
2023/10/11 00:43:52;;;;;;;5.70;3.07;;;20.90;99.90;;;;;;5070244;28;20164;-12
2023/10/11 00:46:23;;;;;;;3.00;2.70;;;20.90;99.90;;;;;;5052932;28;20186;-12
2023/10/11 00:48:54;;;;;;;4.50;2.50;;;20.80;99.90;;;;;;5072222;28;20170;-14
2023/10/11 00:51:31;;;;;;;2.73;2.40;;;20.90;99.90;;;;;;5073199;28;20171;-14
2023/10/11 00:53:59;;;;;;;3.50;2.40;;;20.80;99.90;;;;;;5057655;28;20213;-14
2023/10/11 00:56:31;;;;;;;4.17;2.53;;;20.90;99.90;;;;;;5073278;28;20236;-14
2023/10/11 00:58:58;;;;;;;2.97;2.37;;;20.90;99.90;;;;;;5073049;28;20184;-13
2023/10/11 01:01:24;;;;;;;3.03;2.53;;;20.80;99.90;;;;;;5055408;28;20173;-15
2023/10/11 01:03:52;;;;;;;3.07;2.70;;;20.80;99.90;;;;;;5071918;28;20175;-13
2023/10/11 01:06:18;;;;;;;3.30;2.57;;;20.80;99.90;;;;;;5070065;28;20457;-13
2023/10/11 01:08:48;;;;;;;4.93;2.60;;;20.80;99.90;;;;;;5070732;28;20236;-13
2023/10/11 01:11:14;;;;;;;3.00;2.50;;;20.80;99.90;;;;;;5053124;28;20179;-13
2023/10/11 01:13:50;;;;;;;3.57;2.67;;;20.80;99.90;;;;;;5072440;28;20164;-15
2023/10/11 01:16:18;;;;;;;4.37;2.40;;;20.80;99.90;;;;;;5072351;28;20482;-14
2023/10/11 01:18:44;;;;;;;3.30;2.50;;;20.80;99.90;;;;;;5056710;28;20183;-15
2023/10/11 01:21:12;;;;;;;4.43;2.50;;;20.80;99.90;;;;;;5070501;28;20360;-14
2023/10/11 01:23:38;;;;;;;3.27;2.60;;;20.80;99.90;;;;;;5039407;28;20180;-15
2023/10/11 01:26:08;;;;;;;2.97;2.50;;;20.80;99.90;;;;;;5056700;28;20210;-17
2023/10/11 01:28:36;;;;;;;3.10;2.43;;;20.80;99.90;;;;;;5057204;28;20438;-13
2023/10/11 01:31:08;;;;;;;4.20;2.93;;;20.80;99.90;;;;;;5039416;28;20226;-14
2023/10/11 01:33:40;;;;;;;2.90;2.40;;;20.80;99.90;;;;;;5039627;28;20468;-20
2023/10/11 01:36:07;;;;;;;3.00;2.50;;;20.80;99.90;;;;;;5040255;28;20175;-14
2023/10/11 01:38:46;;;;;;;3.33;2.67;;;20.80;99.90;;;;;;5040912;28;20196;-14
2023/10/11 01:41:14;;;;;;;4.30;3.03;;;20.80;99.90;;;;;;5039532;28;20188;-15
2023/10/11 01:43:42;;;;;;;5.23;2.90;;;20.80;99.90;;;;;;5057130;28;20175;-16
2023/10/11 01:46:07;;;;;;;2.77;2.50;;;20.80;99.90;;;;;;5039879;28;20237;-15
2023/10/11 01:48:33;;;;;;;3.43;2.30;;;20.80;99.90;;;;;;5057229;28;20167;-15
2023/10/11 01:51:05;;;;;;;4.00;2.47;;;20.80;99.90;;;;;;5057366;28;20222;-15
2023/10/11 01:53:35;;;;;;;3.63;3.00;;;20.80;99.90;;;;;;5040091;28;20584;-15
2023/10/11 01:56:02;;;;;;;4.10;2.60;;;20.80;99.90;;;;;;5039817;28;20592;-15
2023/10/11 01:58:28;;;;;;;4.53;2.57;;;20.80;99.90;;;;;;5056810;28;20169;-14
2023/10/11 02:00:55;;;;;;;3.20;2.60;;;20.80;99.90;;;;;;5057018;28;20179;-15
2023/10/11 02:03:25;;;;;;;2.70;2.30;;;20.80;99.90;;;;;;5039938;28;20172;-14
2023/10/11 02:05:54;;;;;;;2.67;2.43;;;20.80;99.90;;;;;;5039613;28;20204;-14
2023/10/11 02:08:19;;;;;;;2.90;2.33;;;20.80;99.90;;;;;;5056953;28;20242;-15
2023/10/11 02:10:45;;;;;;;4.13;2.80;;;20.80;99.90;;;;;;5058543;28;20295;-16
2023/10/11 02:13:12;;;;;;;4.03;2.40;;;20.80;99.90;;;;;;5076825;28;20167;-15
2023/10/11 02:15:40;;;;;;;4.47;2.60;;;20.80;99.90;;;;;;5060047;28;20213;-15
2023/10/11 02:18:10;;;;;;;3.63;2.60;;;20.80;99.90;;;;;;5063487;28;20175;-13
2023/10/11 02:20:43;;;;;;;4.17;2.60;;;20.70;99.90;;;;;;5063400;28;20583;-15
2023/10/11 02:23:09;;;;;;;3.37;2.30;;;20.70;99.90;;;;;;5063592;28;20191;-16
2023/10/11 02:25:34;;;;;;;2.67;2.03;;;20.70;99.90;;;;;;5080843;28;20189;-15
2023/10/11 02:28:00;;;;;;;3.43;2.30;;;20.70;99.90;;;;;;5063434;28;20166;-17
2023/10/11 02:30:26;;;;;;;4.33;2.37;;;20.80;99.90;;;;;;5080898;28;20172;-16
2023/10/11 02:32:58;;;;;;;2.67;2.20;;;20.70;99.90;;;;;;5063679;28;20221;-16
2023/10/11 02:35:27;;;;;;;3.03;2.33;;;20.70;99.90;;;;;;5080754;28;20216;-15
2023/10/11 02:37:58;;;;;;;4.23;2.93;;;20.70;99.90;;;;;;5063462;28;20192;-13
2023/10/11 02:40:24;;;;;;;3.43;2.60;;;20.70;99.90;;;;;;5080918;28;20164;-13
2023/10/11 02:42:55;;;;;;;3.40;2.57;;;20.70;99.90;;;;;;5063128;28;20557;-14
2023/10/11 02:45:22;;;;;;;3.23;2.40;;;20.70;99.90;;;;;;5063230;28;20203;-14
2023/10/11 02:47:49;;;;;;;3.00;2.40;;;20.70;99.90;;;;;;5062485;28;20769;-15
2023/10/11 02:50:15;;;;;;;3.60;2.63;;;20.70;99.90;;;;;;5080189;28;20164;-15
2023/10/11 02:52:58;;;;;;;3.73;2.40;;;20.70;99.90;;;;;;5080802;28;20168;-13
2023/10/11 02:55:24;;;;;;;3.33;2.63;;;20.70;99.90;;;;;;5080225;28;20228;-14
2023/10/11 02:58:08;;;;;;;3.77;2.50;;;20.70;99.90;;;;;;5080262;28;20195;-14
2023/10/11 03:00:36;;;;;;;3.90;2.77;;;20.70;99.90;;;;;;5063100;28;20207;-15
2023/10/11 03:03:10;;;;;;;3.27;2.33;;;20.70;99.90;;;;;;5063206;28;20270;-15
2023/10/11 03:05:37;;;;;;;3.43;2.13;;;20.70;99.90;;;;;;5080286;28;20197;-13
2023/10/11 03:08:14;;;;;;;4.27;2.40;;;20.70;99.90;;;;;;5080709;28;20171;-15
2023/10/11 03:10:44;;;;;;;2.70;2.30;;;20.70;99.90;;;;;;5080479;28;20170;-14
2023/10/11 03:13:19;;;;;;;3.93;2.50;;;20.70;99.90;;;;;;5079845;28;20688;-15
2023/10/11 03:15:54;;;;;;;3.60;2.70;;;20.70;99.90;;;;;;5080366;28;20165;-15
2023/10/11 03:18:25;;;;;;;3.50;2.47;;;20.70;99.90;;;;;;5080063;28;20166;-15
2023/10/11 03:21:08;;;;;;;3.60;2.63;;;20.70;99.90;;;;;;5062907;28;20697;-16
2023/10/11 03:23:44;;;;;;;3.97;2.60;;;20.70;99.90;;;;;;5062340;28;20179;-14
2023/10/11 03:26:19;;;;;;;2.83;2.20;;;20.70;99.90;;;;;;5079519;28;20203;-14
2023/10/11 03:28:56;;;;;;;3.00;2.20;;;20.70;99.90;;;;;;5062172;28;20266;-16
2023/10/11 03:31:34;;;;;;;3.37;2.70;;;20.70;99.90;;;;;;5080254;28;20163;-15
2023/10/11 03:34:07;;;;;;;3.27;2.63;;;20.60;99.90;;;;;;5073243;28;20186;-14
2023/10/11 03:36:43;;;;;;;3.30;2.70;;;20.70;99.90;;;;;;5079562;28;20164;-15
2023/10/11 03:39:11;;;;;;;3.70;2.57;;;20.60;99.90;;;;;;5079583;28;20191;-15
2023/10/11 03:41:44;;;;;;;3.93;2.77;;;20.60;99.90;;;;;;5079499;28;20251;-14
2023/10/11 03:44:21;;;;;;;3.43;2.63;;;20.60;99.90;;;;;;5061893;28;20221;-16
2023/10/11 03:46:58;;;;;;;2.93;2.33;;;20.60;99.90;;;;;;5079969;28;20181;-15
2023/10/11 03:51:49;;;;;;;3.80;2.50;;;20.60;99.90;;;;;;5079532;28;20182;-13
2023/10/11 03:54:29;;;;;;;4.00;2.67;;;20.60;99.90;;;;;;5079731;28;20229;-14
2023/10/11 03:56:55;;;;;;;3.83;2.50;;;20.60;99.90;;;;;;5061840;28;20431;-14
2023/10/11 03:59:25;;;;;;;3.27;2.60;;;20.60;99.90;;;;;;5078785;28;20408;-14
2023/10/11 04:02:01;;;;;;;3.17;2.47;;;20.60;99.90;;;;;;5079362;28;20163;-14
2023/10/11 04:04:27;;;;;;;4.07;2.50;;;20.60;99.90;;;;;;5078775;28;20196;-14
2023/10/11 04:07:04;;;;;;;3.73;2.70;;;20.60;99.90;;;;;;5061650;28;20421;-15
2023/10/11 04:09:37;;;;;;;3.17;2.37;;;20.60;99.90;;;;;;5061206;28;20602;-16
2023/10/11 04:12:10;;;;;;;3.33;2.50;;;20.60;99.90;;;;;;5060724;28;20553;-15
2023/10/11 04:14:43;;;;;;;3.47;2.30;;;20.60;99.90;;;;;;5078351;28;20190;-15
2023/10/11 04:19:52;;;;;;;3.63;2.60;;;20.60;99.90;;;;;;5078822;28;20188;-18
2023/10/11 04:22:26;;;;;;;3.30;2.67;;;20.60;99.90;;;;;;5077566;28;20172;-14
2023/10/11 04:24:53;;;;;;;3.07;2.40;;;20.60;99.90;;;;;;5078178;28;20209;-13
2023/10/11 04:29:50;;;;;;;6.93;2.97;;;20.60;99.90;;;;;;5073296;28;20174;-16
2023/10/11 04:35:18;;;;;;;4.33;2.57;;;20.60;99.90;;;;;;5077716;28;20172;-15
2023/10/11 04:37:44;;;;;;;3.83;2.57;;;20.60;99.90;;;;;;5059890;28;20200;-15
2023/10/11 04:40:22;;;;;;;4.17;2.70;;;20.60;99.90;;;;;;5058889;28;20181;-16
2023/10/11 04:43:04;;;;;;;2.93;2.50;;;20.60;99.90;;;;;;5076888;28;20699;-15
2023/10/11 04:45:46;;;;;;;5.97;2.73;;;20.60;99.90;;;;;;5059682;28;20747;-16
2023/10/11 04:48:18;;;;;;;4.20;2.60;;;20.60;99.90;;;;;;5077344;28;20167;-15
2023/10/11 04:50:50;;;;;;;4.23;2.80;;;20.60;99.90;;;;;;5059991;28;20171;-14
2023/10/11 04:53:17;;;;;;;5.33;2.60;;;20.60;99.90;;;;;;5060041;28;20167;-16
2023/10/11 04:55:48;;;;;;;4.17;2.60;;;20.60;99.90;;;;;;5078081;28;20529;-14
2023/10/11 04:58:39;;;;;;;4.80;2.77;;;20.60;99.90;;;;;;5060317;28;20521;-15
2023/10/11 05:01:08;;;;;;;3.17;2.57;;;20.60;99.90;;;;;;5058759;22;20208;-14
2023/10/11 05:03:37;;;;;;;3.53;2.70;;;20.60;99.90;;;;;;5051395;28;20179;-16
2023/10/11 05:06:12;;;;;;;5.03;2.57;;;20.60;99.90;;;;;;5034279;28;20206;-14
2023/10/11 05:11:42;;;;;;;2.73;2.43;;;20.50;99.90;;;;;;5027760;28;20222;-15
2023/10/11 05:14:26;;;;;;;4.50;2.80;;;20.50;99.90;;;;;;5050828;28;20690;-13
2023/10/11 05:16:59;;;;;;;3.30;2.60;;;20.50;99.90;;;;;;5033250;28;20168;-13
2023/10/11 05:19:34;;;;;;;3.60;2.73;;;20.50;99.90;;;;;;5033002;28;20183;-15
2023/10/11 05:22:03;;;;;;;4.03;2.90;;;20.50;99.90;;;;;;5050305;28;20207;-15
2023/10/11 05:27:25;;;;;;;4.23;2.77;;;20.50;99.90;;;;;;5047388;28;20234;-15
2023/10/11 05:30:07;;;;;;;3.57;2.73;;;20.50;99.90;;;;;;5045255;28;20338;-15
2023/10/11 05:51:32;;;;;;;4.17;2.90;;;20.50;99.90;;;;;;5049225;28;20172;-16
2023/10/11 05:53:59;;;;;;;3.57;2.53;;;20.50;99.90;;;;;;5050108;28;20476;-17
2023/10/11 05:56:28;;;;;;;3.50;2.80;;;20.50;99.90;;;;;;5031936;28;20536;-16
2023/10/11 05:58:54;;;;;;;4.20;2.50;;;20.50;99.90;;;;;;5046278;28;20168;-15
2023/10/11 06:01:22;;;;;;;4.03;2.80;;;20.50;99.90;;;;;;5035364;23;20460;-16
2023/10/11 06:03:51;;;;;;;3.70;2.80;;;20.50;99.90;;;;;;5046232;28;20463;-18
2023/10/11 06:06:23;;;;;;;3.40;2.77;;;20.50;99.90;;;;;;5028235;28;20826;-15
2023/10/11 06:08:50;;;;;;;3.50;2.43;;;20.50;99.90;;;;;;5027064;28;20180;-16
2023/10/11 06:11:18;;;;;;;5.50;2.80;;;20.50;99.90;;;;;;5027011;28;20163;-15
2023/10/11 06:13:44;;;;;;;3.70;2.57;;;20.50;99.90;;;;;;5027191;28;20170;-14
2023/10/11 06:16:13;;;;;;;4.23;2.67;;;20.50;99.90;;;;;;5027401;28;20172;-17
2023/10/11 06:18:42;;;;;;;4.03;2.87;;;20.50;99.90;;;;;;5045910;28;20196;-15
2023/10/11 06:21:19;;;;;;;6.63;2.80;;;20.50;99.90;;;;;;5027828;28;20233;-17
2023/10/11 06:23:45;;;;;;;3.13;2.60;;;20.50;99.90;;;;;;5046108;28;20160;-15
2023/10/11 06:26:52;;;;;;;4.20;3.00;;;20.50;99.90;;;;;;5046913;28;20243;-16
2023/10/11 06:29:19;;;;;;;3.47;2.70;;;20.50;99.90;;;;;;5044804;28;20245;-16
2023/10/11 06:31:44;;;;;;;3.37;2.50;;;20.50;99.90;;;;;;5028773;28;20603;-16
2023/10/11 06:34:17;;;;;;;6.20;2.90;;;20.50;99.90;;;;;;5045688;28;20557;-18
2023/10/11 06:36:49;;;;;;;3.90;2.90;;;20.50;99.90;;;;;;5027115;28;20275;-15
2023/10/11 06:42:14;;;;;;;3.83;2.90;;;20.50;99.90;;;;;;5046900;28;20196;-17
2023/10/11 06:44:50;;;;;;;4.50;3.30;;;20.50;99.90;;;;;;5027854;28;20311;-15
2023/10/11 06:47:18;;;;;;;3.80;3.03;;;20.50;99.90;;;;;;5028391;28;20221;-17
2023/10/11 06:49:48;;;;;;;3.47;2.70;;;20.50;99.90;;;;;;5029413;28;20450;-15
2023/10/11 06:52:25;;;;;;;4.40;2.60;;;20.50;99.90;;;;;;5029477;28;20183;-16
2023/10/11 06:55:14;;;;;;;8.30;3.10;;;20.50;99.90;;;;;;5028021;28;20563;-15
2023/10/11 06:57:39;;;;;;;4.50;3.60;;;20.50;99.90;;;;;;5045534;28;20486;-17
2023/10/11 07:00:28;;;;;;;5.23;3.37;;;20.60;99.90;;;;;;5046287;28;20170;-14
2023/10/11 07:03:10;;;;;;;5.90;3.13;;;20.60;99.90;;;;;;5017445;28;20192;-16
2023/10/11 07:05:46;;;;;;;4.67;3.07;;;20.60;99.90;;;;;;5032065;28;20212;-18
2023/10/11 07:08:19;;;;;;;5.47;3.00;;;20.60;99.90;;;;;;5032720;28;20335;-14
2023/10/11 07:13:54;;;;;;;6.73;3.27;;;20.70;99.90;;;;;;5050960;28;20459;-14
2023/10/11 07:16:27;;;;;;;5.43;2.90;;;20.70;99.90;;;;;;5033296;28;20430;-16
2023/10/11 07:18:57;;;;;;;5.93;3.13;;;20.70;99.90;;;;;;5030554;28;20782;-17
2023/10/11 07:21:40;;;;;;;4.13;3.03;;;20.70;99.90;;;;;;5049399;28;20206;-15
2023/10/11 07:24:19;;;;;;;4.90;2.93;;;20.70;99.90;;;;;;5048160;28;20172;-16
2023/10/11 07:29:20;;;;;;;7.40;3.00;;;20.80;99.90;;;;;;5047978;28;20443;-15
2023/10/11 07:31:49;;;;;;;7.73;3.53;;;20.80;99.90;;;;;;5048356;28;20164;-15
2023/10/11 07:34:17;;;;;;;6.30;3.10;;;20.80;99.90;;;;;;5048316;28;20207;-15
2023/10/11 07:36:44;;;;;;;5.70;3.03;;;20.80;99.90;;;;;;5047697;28;20275;-15
2023/10/11 07:39:15;;;;;;;5.97;4.03;;;20.90;99.90;;;;;;5046826;28;20246;-17
2023/10/11 07:41:42;;;;;;;6.07;3.00;;;20.90;99.90;;;;;;5047332;28;20274;-17
2023/10/11 07:44:10;;;;;;;6.30;3.00;;;20.90;99.90;;;;;;5047467;28;20168;-18
2023/10/11 07:46:39;;;;;;;5.60;3.00;;;20.90;99.90;;;;;;5045226;28;20173;-16
2023/10/11 07:49:06;;;;;;;6.70;3.20;;;20.90;99.90;;;;;;5027749;28;20424;-17
2023/10/11 07:51:36;;;;;;;5.53;3.30;;;21.00;99.90;;;;;;5027438;28;20686;-16
2023/10/11 07:54:06;;;;;;;6.50;3.30;;;21.00;99.90;;;;;;5045878;28;20325;-15
2023/10/11 07:56:35;;;;;;;4.50;2.97;;;21.00;99.90;;;;;;5029430;28;20439;-16
2023/10/11 07:59:07;;;;;;;6.30;3.20;;;21.10;99.90;;;;;;5029837;28;20207;-20
2023/10/11 08:01:42;;;;;;;5.47;3.37;;;21.10;99.90;;;;;;5046419;28;20236;-16
2023/10/11 08:04:44;;;;;;;6.13;3.17;;;21.10;99.90;;;;;;5046477;28;20474;-16
2023/10/11 08:07:02;;;;;;;4.90;3.30;;;21.10;99.90;;;;;;5047026;28;20462;-16
2023/10/11 08:09:45;;;;;;;5.70;3.47;;;21.20;99.90;;;;;;5043799;28;20168;-16
2023/10/11 08:12:11;;;;;;;5.13;3.27;;;21.20;99.80;;;;;;5028745;28;20329;-17
2023/10/11 08:14:39;;;;;;;7.07;3.57;;;21.20;99.80;;;;;;5027531;28;20478;-17
2023/10/11 08:17:10;;;;;;;5.67;3.50;;;21.20;99.70;;;;;;5029156;28;20168;-17
2023/10/11 08:19:36;;;;;;;5.33;3.20;;;21.20;99.60;;;;;;5047675;28;20319;-16
2023/10/11 08:22:09;;;;;;;6.97;3.23;;;21.30;99.60;;;;;;5047919;28;20191;-19
2023/10/11 08:24:46;;;;;;;6.47;3.33;;;21.30;99.40;;;;;;5028635;28;20196;-20
2023/10/11 08:27:19;;;;;;;6.03;3.30;;;21.40;99.40;;;;;;5029533;28;20630;-16
2023/10/11 08:29:45;;;;;;;6.13;3.40;;;21.40;99.60;;;;;;5046859;28;20157;-16
2023/10/11 08:32:13;;;;;;;6.77;3.47;;;21.40;99.30;;;;;;5028405;28;20208;-16
2023/10/11 08:34:46;;;;;;;7.20;3.40;;;21.40;99.20;;;;;;5028460;28;20203;-15
2023/10/11 08:37:12;;;;;;;4.23;3.20;;;21.40;99.20;;;;;;5029305;28;20388;-18
2023/10/11 08:39:45;;;;;;;5.63;3.53;;;21.40;99.40;;;;;;5047123;28;20172;-17
2023/10/11 08:42:22;;;;;;;5.80;3.30;;;21.50;99.00;;;;;;5029404;28;20595;-16
2023/10/11 08:44:49;;;;;;;7.33;3.50;;;21.50;99.00;;;;;;5029339;28;20230;-14
2023/10/11 08:47:19;;;;;;;5.80;3.10;;;21.50;98.80;;;;;;5046737;28;20165;-17
2023/10/11 08:49:48;;;;;;;9.13;3.67;;;21.50;98.80;;;;;;5029841;28;20179;-16
2023/10/11 08:52:29;;;;;;;5.93;3.50;;;21.50;98.70;;;;;;5029643;28;20276;-17
2023/10/11 08:54:58;;;;;;;6.63;3.33;;;21.50;98.70;;;;;;5029966;28;20176;-16
2023/10/11 08:57:25;;;;;;;6.87;3.33;;;21.50;98.70;;;;;;5028568;28;20172;-16
2023/10/11 08:59:57;;;;;;;6.00;3.40;;;21.50;98.80;;;;;;5046066;28;20179;-18
2023/10/11 09:02:26;;;;;;;7.87;3.57;;;21.60;98.70;;;;;;5037217;28;20196;-19
2023/10/11 09:05:22;;;;;;;6.40;3.17;;;21.60;98.80;;;;;;5025141;28;20474;-18
2023/10/11 09:07:51;;;;;;;7.70;3.33;;;21.60;98.90;;;;;;5026611;28;20753;-14
2023/10/11 09:10:33;;;;;;;6.30;3.30;;;21.60;98.60;;;;;;5025877;28;20449;-17
2023/10/11 09:13:01;;;;;;;6.93;3.53;;;21.60;98.50;;;;;;5006038;28;20192;-16
2023/10/11 09:15:45;;;;;;;13.03;3.67;;;21.60;98.40;;;;;;5025029;28;20568;-18
2023/10/11 09:18:14;;;;;;;10.77;4.00;;;21.70;98.50;;;;;;5022425;28;20165;-17
2023/10/11 09:20:42;;;;;;;7.37;3.13;;;21.70;98.30;;;;;;5006940;28;20268;-14
2023/10/11 09:23:11;;;;;;;8.97;3.70;;;21.70;98.30;;;;;;5024818;28;20348;-17
2023/10/11 09:25:59;;;;;;;8.63;3.50;;;21.70;98.30;;;;;;5026818;28;20209;-15
2023/10/11 09:28:26;;;;;;;8.67;3.43;;;21.70;98.30;;;;;;5010085;28;20347;-16
2023/10/11 09:31:15;;;;;;;10.43;3.73;;;21.70;98.30;;;;;;5025698;28;20264;-18
2023/10/11 09:33:48;;;;;;;7.33;3.87;;;21.70;98.10;;;;;;5007493;28;20172;-16
2023/10/11 09:36:16;;;;;;;9.90;3.70;;;21.80;98.20;;;;;;5025131;28;20547;-14
2023/10/11 09:38:42;;;;;;;10.23;3.90;;;21.80;98.00;;;;;;5023821;28;20601;-15
2023/10/11 09:41:08;;;;;;;7.53;3.90;;;21.80;98.00;;;;;;5024622;28;20538;-15
2023/10/11 09:43:43;;;;;;;10.20;3.53;;;21.80;97.90;;;;;;5005814;28;20599;-18
2023/10/11 09:46:11;;;;;;;10.33;3.37;;;21.80;97.80;;;;;;5023531;28;20204;-16
2023/10/11 09:48:39;;;;;;;10.37;3.70;;;21.80;97.80;;;;;;5023196;28;20360;-16
2023/10/11 09:51:14;;;;;;;11.40;3.50;;;21.90;97.90;;;;;;5023117;28;20173;-14
2023/10/11 09:53:50;;;;;;;9.17;3.83;;;21.90;97.70;;;;;;5022817;28;20161;-15
2023/10/11 09:56:50;;;;;;;6.47;3.27;;;21.90;97.70;;;;;;5007180;28;20180;-16
2023/10/11 09:59:37;;;;;;;9.37;3.50;;;21.90;97.50;;;;;;5023481;28;20173;-14
2023/10/11 10:02:06;;;;;;;7.23;3.17;;;21.90;97.60;;;;;;5015029;28;20208;-16
2023/10/11 10:04:50;;;;;;;6.97;3.60;;;21.90;97.40;;;;;;5034023;28;20193;-15
2023/10/11 10:07:26;;;;;;;7.40;3.43;;;21.90;97.30;;;;;;5034647;28;20172;-18
2023/10/11 10:09:59;;;;;;;8.13;3.60;;;22.00;97.30;;;;;;5034578;28;20161;-15
2023/10/11 10:12:44;;;;;;;10.57;4.27;;;22.00;97.20;;;;;;5033973;28;20172;-17
2023/10/11 10:15:20;;;;;;;8.20;3.73;;;22.00;97.20;;;;;;5033631;28;20165;-15
2023/10/11 10:18:00;;;;;;;9.57;3.63;;;22.00;97.00;;;;;;5034631;28;20719;-16
2023/10/11 10:20:34;;;;;;;5.47;3.53;;;22.10;97.00;;;;;;5033812;28;20179;-16
2023/10/11 10:23:15;;;;;;;5.97;3.60;;;22.10;96.80;;;;;;5016517;28;20187;-15
2023/10/11 10:25:48;;;;;;;4.90;3.40;;;22.10;97.00;;;;;;5034433;28;20464;-15
2023/10/11 10:28:32;;;;;;;4.83;3.10;;;22.10;97.10;;;;;;5035116;28;20223;-19
2023/10/11 10:31:19;;;;;;;5.87;3.73;;;22.10;97.00;;;;;;5034342;28;20447;-16
2023/10/11 10:33:52;;;;;;;8.37;3.77;;;22.10;97.00;;;;;;5034339;28;20168;-16
2023/10/11 10:36:18;;;;;;;9.03;3.53;;;22.10;97.10;;;;;;5033783;28;20183;-17
2023/10/11 10:39:47;;;;;;;5.57;3.60;;;22.20;96.80;;;;;;5037717;28;20165;-18
2023/10/11 10:42:12;;;;;;;6.40;3.83;;;22.20;96.90;;;;;;5026253;28;20183;-17
2023/10/11 10:44:53;;;;;;;5.70;3.43;;;22.20;96.90;;;;;;5020190;28;20634;-15
2023/10/11 10:47:28;;;;;;;8.53;3.90;;;22.20;97.10;;;;;;5020687;28;20264;-15
2023/10/11 10:49:56;;;;;;;5.03;3.10;;;22.20;96.80;;;;;;5038816;28;20180;-17
2023/10/11 10:52:30;;;;;;;4.73;3.20;;;22.20;97.00;;;;;;5020856;28;20570;-15
2023/10/11 10:55:07;;;;;;;8.50;3.50;;;22.30;96.70;;;;;;5020506;28;20341;-14
2023/10/11 10:57:38;;;;;;;6.20;3.33;;;22.30;96.70;;;;;;5037451;28;20196;-16
2023/10/11 11:00:21;;;;;;;4.67;3.47;;;22.40;97.00;;;;;;5020528;28;20192;-15
2023/10/11 11:02:47;;;;;;;4.33;3.43;;;22.40;96.50;;;;;;5053572;28;20592;-16
2023/10/11 11:05:18;;;;;;;5.97;3.30;;;22.40;96.70;;;;;;5055547;28;20701;-15
2023/10/11 11:07:47;;;;;;;5.43;3.10;;;22.40;96.50;;;;;;5056202;28;20179;-16
2023/10/11 11:10:20;;;;;;;7.03;3.93;;;22.30;96.80;;;;;;5037406;28;20168;-18
2023/10/11 11:12:47;;;;;;;6.23;3.43;;;22.30;96.90;;;;;;5057268;28;20160;-18
2023/10/11 11:15:20;;;;;;;5.90;3.43;;;22.30;97.10;;;;;;5055991;28;20254;-17
2023/10/11 11:17:51;;;;;;;5.53;3.30;;;22.20;97.10;;;;;;5057033;28;20168;-15
2023/10/11 11:20:31;;;;;;;5.47;3.47;;;22.30;97.00;;;;;;5057499;28;20164;-15
2023/10/11 11:22:57;;;;;;;5.30;3.50;;;22.30;97.20;;;;;;5057198;28;20190;-15
2023/10/11 11:25:27;;;;;;;5.83;3.57;;;22.30;97.20;;;;;;5056667;28;20283;-14
2023/10/11 11:28:24;;;;;;;6.17;3.80;;;22.30;97.30;;;;;;5056133;28;20167;-16
2023/10/11 11:31:04;;;;;;;5.07;3.00;;;22.30;97.30;;;;;;5056907;28;20190;-18
2023/10/11 11:33:35;;;;;;;5.30;3.50;;;22.20;97.10;;;;;;5038289;28;20571;-17
2023/10/11 11:36:18;;;;;;;3.90;3.07;;;22.30;97.30;;;;;;5055991;28;20176;-15
2023/10/11 11:38:47;;;;;;;5.57;3.43;;;22.30;97.40;;;;;;5037241;28;20261;-18
2023/10/11 11:41:16;;;;;;;7.37;3.60;;;22.30;97.20;;;;;;5057573;28;20179;-16
2023/10/11 11:43:46;;;;;;;6.20;3.40;;;22.30;97.10;;;;;;5056891;28;20182;-17
2023/10/11 11:46:15;;;;;;;6.43;3.33;;;22.30;97.20;;;;;;5056974;28;20200;-17
2023/10/11 11:48:51;;;;;;;6.90;3.33;;;22.30;97.30;;;;;;5055223;28;20169;-17
2023/10/11 11:51:17;;;;;;;9.03;3.87;;;22.30;97.30;;;;;;5038742;28;20543;-16
2023/10/11 11:53:45;;;;;;;5.00;3.17;;;22.30;97.30;;;;;;5038381;28;20734;-16
2023/10/11 11:56:12;;;;;;;8.30;4.07;;;22.30;97.40;;;;;;5038701;28;20283;-18
2023/10/11 11:58:46;;;;;;;7.87;3.60;;;22.30;97.30;;;;;;5055757;28;20168;-14
2023/10/11 12:01:15;;;;;;;5.77;3.23;;;22.30;97.40;;;;;;5037995;28;20198;-18
2023/10/11 12:03:42;;;;;;;6.27;3.07;;;22.30;97.30;;;;;;5055927;28;20172;-17
2023/10/11 12:06:21;;;;;;;5.67;3.20;;;22.30;97.40;;;;;;5038794;28;20210;-17
2023/10/11 12:09:17;;;;;;;5.50;3.50;;;22.30;97.50;;;;;;5056571;28;20171;-17
2023/10/11 12:11:53;;;;;;;6.03;3.77;;;22.30;97.60;;;;;;5055771;28;20190;-16
2023/10/11 12:14:22;;;;;;;6.60;3.40;;;22.30;97.50;;;;;;5055701;28;20299;-16
2023/10/11 12:16:48;;;;;;;6.10;3.40;;;22.30;97.60;;;;;;5038565;28;20242;-16
2023/10/11 12:19:15;;;;;;;6.07;3.20;;;22.30;97.60;;;;;;5056047;28;20240;-15
2023/10/11 12:21:41;;;;;;;5.07;3.20;;;22.30;97.50;;;;;;5056103;28;20338;-16
2023/10/11 12:24:11;;;;;;;5.10;3.17;;;22.30;97.50;;;;;;5055613;28;20579;-17
2023/10/11 12:26:41;;;;;;;5.83;3.00;;;22.30;97.60;;;;;;5037778;28;20467;-16
2023/10/11 12:29:09;;;;;;;6.23;3.80;;;22.30;97.60;;;;;;5027352;28;20177;-17
2023/10/11 12:31:38;;;;;;;5.83;3.33;;;22.30;97.60;;;;;;5026101;28;20164;-15
2023/10/11 12:34:16;;;;;;;5.93;3.27;;;22.30;97.60;;;;;;5025982;28;20173;-17
2023/10/11 12:36:42;;;;;;;7.63;3.40;;;22.30;97.60;;;;;;5025486;28;20177;-16
2023/10/11 12:39:20;;;;;;;5.30;3.43;;;22.30;97.60;;;;;;5026263;28;20180;-16
2023/10/11 12:41:49;;;;;;;7.27;3.63;;;22.30;97.70;;;;;;5013438;28;20248;-14
2023/10/11 12:44:18;;;;;;;9.07;3.57;;;22.30;97.70;;;;;;5028363;28;20567;-16
2023/10/11 12:46:48;;;;;;;5.80;3.33;;;22.30;97.70;;;;;;5045420;28;20458;-18
2023/10/11 12:49:14;;;;;;;6.93;3.33;;;22.30;97.70;;;;;;5044319;28;20160;-19
2023/10/11 12:51:46;;;;;;;5.07;2.93;;;22.30;97.70;;;;;;5043764;28;20172;-14
2023/10/11 12:54:16;;;;;;;7.60;3.63;;;22.40;97.80;;;;;;5044926;28;20252;-16
2023/10/11 12:56:45;;;;;;;6.80;3.20;;;22.40;97.80;;;;;;5044672;28;20222;-14
2023/10/11 12:59:14;;;;;;;7.47;3.53;;;22.40;97.80;;;;;;5044914;28;20326;-14
2023/10/11 13:01:42;;;;;;;5.67;3.20;;;22.40;97.80;;;;;;5043259;28;20192;-15
2023/10/11 13:04:17;;;;;;;6.60;3.47;;;22.40;97.80;;;;;;5027740;28;20168;-15
2023/10/11 13:06:49;;;;;;;5.73;3.60;;;22.40;97.80;;;;;;5044994;28;20481;-14
2023/10/11 13:09:23;;;;;;;5.23;3.27;;;22.40;97.90;;;;;;5045143;28;20530;-16
2023/10/11 13:11:49;;;;;;;5.93;3.20;;;22.40;97.90;;;;;;5041666;28;20331;-16
2023/10/11 13:14:18;;;;;;;6.23;3.00;;;22.40;98.20;;;;;;5023964;28;20448;-14
2023/10/11 13:16:51;;;;;;;4.73;3.30;;;22.40;97.90;;;;;;5024358;28;20678;-16
2023/10/11 13:19:20;;;;;;;6.77;3.30;;;22.40;97.90;;;;;;5043203;28;20164;-16
2023/10/11 13:21:49;;;;;;;5.93;3.03;;;22.40;97.90;;;;;;5044284;28;20487;-16
2023/10/11 13:24:22;;;;;;;6.07;3.37;;;22.40;97.90;;;;;;5026147;28;20278;-16
2023/10/11 13:26:54;;;;;;;5.27;3.30;;;22.40;98.00;;;;;;5045188;28;20167;-16
2023/10/11 13:29:21;;;;;;;6.97;3.10;;;22.40;98.00;;;;;;5026146;28;20173;-15
2023/10/11 13:31:49;;;;;;;5.63;3.20;;;22.40;98.00;;;;;;5025970;28;20379;-16
2023/10/11 13:34:15;;;;;;;6.43;3.43;;;22.40;98.00;;;;;;5042673;28;20164;-20
2023/10/11 13:36:42;;;;;;;7.93;3.37;;;22.50;98.30;;;;;;5042908;28;20486;-15
2023/10/11 13:39:25;;;;;;;6.93;3.40;;;22.40;98.00;;;;;;5042595;28;20192;-16
2023/10/11 13:41:54;;;;;;;5.23;3.47;;;22.50;98.20;;;;;;5038576;28;20165;-16
2023/10/11 13:44:21;;;;;;;7.70;3.30;;;22.50;98.20;;;;;;5016532;28;20169;-16
2023/10/11 13:46:52;;;;;;;9.50;3.60;;;22.50;98.20;;;;;;5033432;28;20161;-16
2023/10/11 13:49:27;;;;;;;9.20;3.43;;;22.50;98.20;;;;;;5032813;28;20611;-15
2023/10/11 13:51:54;;;;;;;5.93;3.30;;;22.50;98.20;;;;;;5020741;28;20190;-16
2023/10/11 13:57:20;;;;;;;5.97;3.50;;;22.50;98.30;;;;;;4987706;28;20177;-17
2023/10/11 13:59:51;;;;;;;9.30;3.57;;;22.50;98.20;;;;;;5016938;28;20578;-20